createdAt,value
2022-10-06T00:01:27.471Z,100318.27
2022-10-06T00:04:00.013Z,100319.80
2022-10-06T00:06:32.198Z,100318.00
2022-10-06T00:09:04.551Z,100316.95
2022-10-06T00:11:37.840Z,100312.94
2022-10-06T00:14:10.142Z,100316.84
2022-10-06T00:16:42.469Z,100306.09
2022-10-06T00:19:14.671Z,100303.96
2022-10-06T00:21:47.029Z,100303.36
2022-10-06T00:24:19.847Z,100304.77
2022-10-06T00:26:52.125Z,100306.50
2022-10-06T00:29:24.441Z,100305.09
2022-10-06T00:31:57.295Z,100306.39
2022-10-06T00:34:29.579Z,100304.45
2022-10-06T00:37:01.852Z,100309.52
2022-10-06T00:39:34.174Z,100312.93
2022-10-06T00:42:06.566Z,100308.89
2022-10-06T00:44:38.843Z,100310.05
2022-10-06T00:47:11.172Z,100309.59
2022-10-06T00:49:45.022Z,100309.11
2022-10-06T00:52:20.234Z,100306.30
2022-10-06T00:54:52.669Z,100309.49
2022-10-06T00:57:25.196Z,100307.77
2022-10-06T00:59:57.522Z,100307.48
2022-10-06T01:02:36.063Z,100306.12
2022-10-06T01:05:11.376Z,100310.29
2022-10-06T01:07:43.902Z,100307.45
2022-10-06T01:10:16.225Z,100306.86
2022-10-06T01:12:48.580Z,100309.09
2022-10-06T01:15:22.695Z,100308.23
2022-10-06T01:18:01.212Z,100309.59
2022-10-06T01:20:34.690Z,100314.98
2022-10-06T01:23:10.369Z,100313.54
2022-10-06T01:25:42.873Z,100313.77
2022-10-06T01:28:16.300Z,100309.16
2022-10-06T01:30:53.054Z,100314.70
2022-10-06T01:33:27.373Z,100313.61
2022-10-06T01:36:00.021Z,100315.17
2022-10-06T01:38:32.750Z,100315.88
2022-10-06T01:41:08.560Z,100316.00
2022-10-06T01:43:41.105Z,100313.52
2022-10-06T01:46:13.510Z,100317.73
2022-10-06T01:48:46.593Z,100316.56
2022-10-06T01:51:20.441Z,100320.14
2022-10-06T01:53:52.692Z,100318.27
2022-10-06T01:56:26.635Z,100319.08
2022-10-06T01:58:58.874Z,100320.36
2022-10-06T02:01:31.721Z,100319.34
2022-10-06T02:04:04.132Z,100319.17
2022-10-06T02:06:36.510Z,100313.60
2022-10-06T02:09:09.828Z,100312.52
2022-10-06T02:11:43.885Z,100315.64
2022-10-06T02:14:18.197Z,100316.41
2022-10-06T02:16:50.801Z,100319.32
2022-10-06T02:19:23.316Z,100319.77
2022-10-06T02:21:56.044Z,100321.70
2022-10-06T02:24:28.391Z,100320.29
2022-10-06T02:27:00.709Z,100321.31
2022-10-06T02:29:33.081Z,100321.07
2022-10-06T02:32:05.839Z,100323.79
2022-10-06T02:34:38.125Z,100322.00
2022-10-06T02:37:10.788Z,100324.76
2022-10-06T02:39:43.252Z,100329.55
2022-10-06T02:42:15.504Z,100332.39
2022-10-06T02:44:48.244Z,100332.67
2022-10-06T02:47:22.425Z,100334.44
2022-10-06T02:49:54.756Z,100331.66
2022-10-06T02:52:31.982Z,100336.54
2022-10-06T02:55:05.075Z,100340.15
2022-10-06T02:57:37.401Z,100340.86
2022-10-06T03:00:12.640Z,100340.38
2022-10-06T03:02:45.034Z,100343.66
2022-10-06T03:05:17.798Z,100344.86
2022-10-06T03:07:50.136Z,100351.40
2022-10-06T03:10:23.258Z,100346.96
2022-10-06T03:12:55.780Z,100347.83
2022-10-06T03:15:28.887Z,100346.63
2022-10-06T03:18:01.766Z,100347.70
2022-10-06T03:20:34.075Z,100349.25
2022-10-06T03:23:10.262Z,100347.83
2022-10-06T03:25:45.516Z,100347.20
2022-10-06T03:28:18.697Z,100345.64
2022-10-06T03:30:51.087Z,100350.43
2022-10-06T03:33:23.921Z,100355.39
2022-10-06T03:36:03.796Z,100355.02
2022-10-06T03:38:37.720Z,100362.95
2022-10-06T03:41:12.089Z,100367.55
2022-10-06T03:43:46.468Z,100372.66
2022-10-06T03:46:20.925Z,100373.92
2022-10-06T03:48:54.117Z,100373.46
2022-10-06T03:51:31.404Z,100378.14
2022-10-06T03:54:04.745Z,100379.84
2022-10-06T03:56:39.947Z,100384.86
2022-10-06T03:59:14.150Z,100385.20
2022-10-06T04:01:49.401Z,100386.70
2022-10-06T04:04:34.086Z,100384.71
2022-10-06T04:07:10.362Z,100381.42
2022-10-06T04:09:42.718Z,100385.77
2022-10-06T04:12:16.250Z,100392.63
2022-10-06T04:14:48.852Z,100397.36
2022-10-06T04:17:21.132Z,100398.20
2022-10-06T04:19:53.328Z,100396.71
2022-10-06T04:22:25.663Z,100402.34
2022-10-06T04:24:58.041Z,100405.00
2022-10-06T04:27:30.492Z,100405.67
2022-10-06T04:30:12.726Z,100406.52
2022-10-06T04:32:45.930Z,100408.00
2022-10-06T04:35:19.398Z,100414.30
2022-10-06T04:37:52.038Z,100415.98
2022-10-06T04:40:24.516Z,100415.27
2022-10-06T04:42:57.571Z,100413.80
2022-10-06T04:45:30.078Z,100417.83
2022-10-06T04:48:02.530Z,100417.29
2022-10-06T04:50:34.975Z,100416.15
2022-10-06T04:53:13.813Z,100423.25
2022-10-06T04:55:46.244Z,100419.09
2022-10-06T04:58:18.585Z,100422.66
2022-10-06T05:00:53.055Z,100423.23
2022-10-06T05:03:25.721Z,100425.23
2022-10-06T05:06:06.018Z,100431.09
2022-10-06T05:08:38.636Z,100433.67
2022-10-06T05:11:15.194Z,100438.59
2022-10-06T05:13:52.976Z,100442.89
2022-10-06T05:16:29.069Z,100447.18
2022-10-06T05:19:08.013Z,100444.67
2022-10-06T05:21:45.115Z,100449.06
2022-10-06T05:24:22.778Z,100453.11
2022-10-06T05:26:59.519Z,100455.69
2022-10-06T05:29:35.385Z,100464.81
2022-10-06T05:32:09.322Z,100461.33
2022-10-06T05:34:42.488Z,100464.81
2022-10-06T05:37:14.803Z,100464.30
2022-10-06T05:39:47.823Z,100470.36
2022-10-06T05:42:20.427Z,100476.32
2022-10-06T05:44:53.017Z,100479.05
2022-10-06T05:47:25.350Z,100480.03
2022-10-06T05:49:57.616Z,100482.42
2022-10-06T05:52:30.010Z,100482.77
2022-10-06T05:55:02.987Z,100488.67
2022-10-06T05:57:35.645Z,100493.25
2022-10-06T06:00:11.197Z,100493.41
2022-10-06T06:02:45.362Z,100495.09
2022-10-06T06:05:19.272Z,100501.86
2022-10-06T06:07:51.701Z,100499.84
2022-10-06T06:10:24.157Z,100508.46
2022-10-06T06:12:56.613Z,100514.89
2022-10-06T06:16:01.999Z,100513.56
2022-10-06T06:18:35.688Z,100522.13
2022-10-06T06:21:10.712Z,100514.59
2022-10-06T06:23:46.569Z,100524.84
2022-10-06T06:26:23.620Z,100526.34
2022-10-06T06:29:04.143Z,100523.13
2022-10-06T06:31:39.863Z,100520.63
2022-10-06T06:34:13.161Z,100523.95
2022-10-06T06:36:52.205Z,100528.42
2022-10-06T06:39:25.572Z,100526.68
2022-10-06T06:41:58.369Z,100535.08
2022-10-06T06:44:47.976Z,100541.52
2022-10-06T06:47:40.244Z,100541.39
2022-10-06T06:50:15.261Z,100545.17
2022-10-06T06:52:47.566Z,100544.71
2022-10-06T06:55:20.572Z,100548.04
2022-10-06T06:57:54.925Z,100554.12
2022-10-06T07:00:27.261Z,100558.79
2022-10-06T07:03:00.959Z,100561.27
2022-10-06T07:05:35.813Z,100565.84
2022-10-06T07:08:09.952Z,100568.47
2022-10-06T07:10:45.235Z,100572.68
2022-10-06T07:13:18.668Z,100577.24
2022-10-06T07:16:10.545Z,100584.80
2022-10-06T07:19:00.326Z,100586.13
2022-10-06T07:21:50.934Z,100591.24
2022-10-06T07:24:42.163Z,100599.38
2022-10-06T07:27:14.942Z,100597.42
2022-10-06T07:29:47.338Z,100606.57
2022-10-06T07:32:21.399Z,100611.59
2022-10-06T07:34:55.431Z,100615.87
2022-10-06T07:37:29.307Z,100617.91
2022-10-06T07:40:02.779Z,100622.96
2022-10-06T07:42:48.571Z,100625.51
2022-10-06T07:45:42.555Z,100627.96
2022-10-06T07:48:19.717Z,100632.12
2022-10-06T07:50:56.725Z,100638.07
2022-10-06T07:53:37.574Z,100645.89
2022-10-06T07:56:20.685Z,100640.65
2022-10-06T07:58:56.174Z,100640.45
2022-10-06T08:01:30.155Z,100642.81
2022-10-06T08:04:06.998Z,100641.48
2022-10-06T08:06:39.662Z,100640.45
2022-10-06T08:09:11.952Z,100644.05
2022-10-06T08:11:45.224Z,100645.98
2022-10-06T08:14:17.509Z,100648.62
2022-10-06T08:16:49.869Z,100652.76
2022-10-06T08:19:22.326Z,100649.18
2022-10-06T08:21:54.573Z,100658.05
2022-10-06T08:24:33.821Z,100670.05
2022-10-06T08:27:14.813Z,100674.80
2022-10-06T08:29:47.078Z,100681.14
2022-10-06T08:32:20.161Z,100683.56
2022-10-06T08:34:52.800Z,100688.61
2022-10-06T08:37:26.946Z,100695.96
2022-10-06T08:39:59.633Z,100699.88
2022-10-06T08:42:39.848Z,100707.55
2022-10-06T08:45:19.305Z,100712.61
2022-10-06T08:47:56.531Z,100716.79
2022-10-06T08:50:33.748Z,100721.68
2022-10-06T08:53:15.480Z,100732.67
2022-10-06T08:55:54.134Z,100739.14
2022-10-06T08:58:38.527Z,100735.77
2022-10-06T09:01:19.903Z,100738.97
2022-10-06T09:03:54.345Z,100741.53
2022-10-06T09:06:41.804Z,100741.48
2022-10-06T09:09:29.389Z,100744.48
2022-10-06T09:12:09.917Z,100744.48
2022-10-06T09:14:45.610Z,100748.96
2022-10-06T09:17:23.595Z,100748.46
2022-10-06T09:20:01.615Z,100755.74
2022-10-06T09:22:35.048Z,100759.86
2022-10-06T09:25:20.252Z,100766.46
2022-10-06T09:27:57.143Z,100773.67
2022-10-06T09:30:29.850Z,100770.59
2022-10-06T09:33:04.598Z,100780.41
2022-10-06T09:35:36.455Z,100777.79
2022-10-06T09:38:09.436Z,100782.60
2022-10-06T09:40:49.639Z,100783.45
2022-10-06T09:43:26.884Z,100788.52
2022-10-06T09:46:23.049Z,100800.30
2022-10-06T09:49:18.880Z,100798.11
2022-10-06T09:52:18.522Z,100801.14
2022-10-06T09:55:10.185Z,100802.11
2022-10-06T09:57:51.458Z,100812.46
2022-10-06T10:00:31.921Z,100814.73
2022-10-06T10:03:07.304Z,100815.39
2022-10-06T10:05:47.046Z,100826.51
2022-10-06T10:08:24.416Z,100829.85
2022-10-06T10:11:37.392Z,100832.93
2022-10-06T10:14:19.752Z,100835.05
2022-10-06T10:16:53.494Z,100833.95
2022-10-06T10:19:32.970Z,100839.67
2022-10-06T10:22:06.134Z,100845.21
2022-10-06T10:24:55.235Z,100842.86
2022-10-06T10:27:36.949Z,100846.52
2022-10-06T10:30:14.850Z,100849.59
2022-10-06T10:33:00.472Z,100851.12
2022-10-06T10:35:38.874Z,100854.67
2022-10-06T10:38:18.741Z,100856.14
2022-10-06T10:40:56.580Z,100861.72
2022-10-06T10:43:35.252Z,100863.95
2022-10-06T10:46:16.996Z,100873.86
2022-10-06T10:48:55.524Z,100875.80
2022-10-06T10:51:33.461Z,100874.13
2022-10-06T10:54:10.764Z,100872.64
2022-10-06T11:33:15.189Z,100913.52
2022-10-06T11:35:49.722Z,100911.84
2022-10-06T11:38:24.940Z,100918.48
2022-10-06T11:41:02.664Z,100920.24
2022-10-06T11:43:43.508Z,100922.38
2022-10-06T11:46:32.071Z,100923.36
2022-10-06T11:49:49.529Z,100928.20
2022-10-06T11:52:53.689Z,100933.37
2022-10-06T11:55:29.150Z,100934.38
2022-10-06T11:58:41.401Z,100938.12
2022-10-06T12:01:08.942Z,100940.08
2022-10-06T12:04:14.075Z,100943.62
2022-10-06T12:07:00.990Z,100946.15
2022-10-06T12:09:53.973Z,100949.61
2022-10-06T12:13:07.111Z,100952.21
2022-10-06T12:19:24.059Z,100956.97
2022-10-06T12:22:08.702Z,100966.56
2022-10-06T12:24:46.169Z,100977.52
2022-10-06T12:27:32.083Z,100983.30
2022-10-06T12:30:19.047Z,100991.66
2022-10-06T12:32:56.328Z,100990.96
2022-10-06T12:35:37.188Z,100989.82
2022-10-06T12:38:45.614Z,100999.83
2022-10-06T12:41:57.703Z,101005.55
2022-10-06T12:44:35.452Z,101003.54
2022-10-06T12:47:14.825Z,101003.85
2022-10-06T12:49:58.666Z,101008.00
2022-10-06T12:52:45.131Z,101011.45
2022-10-06T12:55:34.760Z,101013.12
2022-10-06T12:58:08.059Z,101013.69
2022-10-06T13:00:43.024Z,101013.75
2022-10-06T13:03:24.399Z,101017.64
2022-10-06T13:06:00.709Z,101021.22
2022-10-06T13:08:35.003Z,101021.05
2022-10-06T13:11:22.267Z,101020.56
2022-10-06T13:13:56.356Z,101022.55
2022-10-06T13:16:32.114Z,101028.10
2022-10-06T13:19:04.561Z,101020.13
2022-10-06T13:21:36.931Z,101020.37
2022-10-06T13:24:15.026Z,101025.97
2022-10-06T13:26:48.625Z,101028.63
2022-10-06T13:29:24.120Z,101038.64
2022-10-06T13:31:57.954Z,101046.64
2022-10-06T13:34:34.971Z,101049.52
2022-10-06T13:37:07.506Z,101056.61
2022-10-06T13:39:39.794Z,101058.10
2022-10-06T13:42:17.902Z,101061.63
2022-10-06T13:44:59.576Z,101062.57
2022-10-06T13:47:33.178Z,101067.84
2022-10-06T13:50:08.514Z,101067.52
2022-10-06T13:52:42.499Z,101075.25
2022-10-06T13:55:22.565Z,101075.48
2022-10-06T13:58:10.109Z,101082.59
2022-10-06T14:00:55.981Z,101084.46
2022-10-06T14:06:19.028Z,101093.88
2022-10-06T14:08:55.208Z,101092.87
2022-10-06T14:11:30.437Z,101094.96
2022-10-06T14:14:05.877Z,101099.76
2022-10-06T14:16:38.213Z,101104.04
2022-10-06T14:19:38.910Z,101104.09
2022-10-06T14:22:32.508Z,101108.00
2022-10-06T14:25:11.776Z,101109.44
2022-10-06T14:27:44.026Z,101113.35
2022-10-06T14:30:17.064Z,101110.91
2022-10-06T14:32:49.825Z,101111.18
2022-10-06T14:35:22.292Z,101121.23
2022-10-06T14:37:54.474Z,101123.46
2022-10-06T14:40:26.849Z,101128.33
2022-10-06T14:42:59.092Z,101133.67
2022-10-06T14:45:36.195Z,101140.13
2022-10-06T14:48:08.672Z,101142.52
2022-10-06T14:50:41.496Z,101142.66
2022-10-06T14:53:17.622Z,101145.92
2022-10-06T14:55:49.891Z,101148.92
2022-10-06T14:58:22.129Z,101150.34
2022-10-06T15:00:54.412Z,101150.02
2022-10-06T15:03:26.863Z,101153.55
2022-10-06T15:06:22.604Z,101153.47
2022-10-06T15:08:57.475Z,101161.45
2022-10-06T15:11:31.204Z,101167.45
2022-10-06T15:14:04.236Z,101168.21
2022-10-06T15:16:40.731Z,101167.39
2022-10-06T15:19:14.004Z,101172.54
2022-10-06T15:21:46.601Z,101175.13
2022-10-06T15:24:21.376Z,101181.60
2022-10-06T15:27:11.259Z,101180.56
2022-10-06T15:29:43.574Z,101181.38
2022-10-06T15:32:15.958Z,101183.58
2022-10-06T15:34:48.181Z,101190.47
2022-10-06T15:37:21.130Z,101193.98
2022-10-06T15:39:53.392Z,101190.35
2022-10-06T15:42:25.704Z,101195.25
2022-10-06T15:44:57.957Z,101195.51
2022-10-06T15:47:30.223Z,101200.07
2022-10-06T15:50:03.650Z,101205.05
2022-10-06T15:52:36.212Z,101210.06
2022-10-06T15:55:10.649Z,101214.85
2022-10-06T15:57:42.946Z,101217.59
2022-10-06T16:00:17.641Z,101228.36
2022-10-06T16:02:48.480Z,101226.48
2022-10-06T16:05:47.408Z,101230.79
2022-10-06T16:08:19.712Z,101235.52
2022-10-06T16:10:53.548Z,101241.59
2022-10-06T16:13:25.949Z,101244.52
2022-10-06T16:15:58.533Z,101248.14
2022-10-06T16:18:32.640Z,101252.77
2022-10-06T16:21:04.992Z,101252.20
2022-10-06T16:23:37.243Z,101258.22
2022-10-06T16:26:09.565Z,101270.39
2022-10-06T16:28:41.896Z,101274.69
2022-10-06T16:31:14.182Z,101277.06
2022-10-06T16:33:47.036Z,101283.35
2022-10-06T16:36:19.916Z,101288.33
2022-10-06T16:38:55.872Z,101290.04
2022-10-06T16:41:28.255Z,101296.61
2022-10-06T16:44:01.166Z,101302.55
2022-10-06T16:46:34.205Z,101307.73
2022-10-06T16:49:08.723Z,101308.46
2022-10-06T16:51:43.003Z,101311.38
2022-10-06T16:54:17.544Z,101314.52
2022-10-06T16:56:52.785Z,101319.52
2022-10-06T16:59:27.070Z,101321.90
2022-10-06T17:01:59.281Z,101318.91
2022-10-06T17:04:31.574Z,101324.23
2022-10-06T17:07:04.376Z,101326.29
2022-10-06T17:09:36.736Z,101326.93
2022-10-06T17:12:09.027Z,101335.39
2022-10-06T17:14:41.293Z,101333.45
2022-10-06T17:17:13.585Z,101337.34
2022-10-06T17:19:45.828Z,101341.18
2022-10-06T17:22:18.072Z,101341.91
2022-10-06T17:24:50.306Z,101342.85
2022-10-06T17:27:23.841Z,101348.88
2022-10-06T17:29:56.101Z,101349.14
2022-10-06T17:32:28.421Z,101348.91
2022-10-06T17:35:00.723Z,101352.06
2022-10-06T17:37:35.130Z,101355.31
2022-10-06T17:40:09.204Z,101354.30
2022-10-06T17:42:42.107Z,101351.55
2022-10-06T17:45:20.377Z,101356.45
2022-10-06T17:47:53.819Z,101360.05
2022-10-06T17:50:42.290Z,101361.29
2022-10-06T17:53:14.800Z,101361.90
2022-10-06T17:55:47.916Z,101368.02
2022-10-06T17:58:29.741Z,101370.80
2022-10-06T18:01:10.299Z,101372.23
2022-10-06T18:03:46.756Z,101370.62
2022-10-06T18:06:41.912Z,101374.02
2022-10-06T18:09:15.235Z,101371.60
2022-10-06T18:11:55.558Z,101371.83
2022-10-06T18:14:33.642Z,101377.63
2022-10-06T18:17:06.744Z,101379.47
2022-10-06T18:19:40.435Z,101384.73
2022-10-06T18:37:41.569Z,101400.05
2022-10-06T18:40:14.986Z,101401.64
2022-10-06T18:42:47.274Z,101405.09
2022-10-06T18:45:39.563Z,101406.38
2022-10-06T18:48:30.292Z,101409.04
2022-10-06T18:51:06.431Z,101414.54
2022-10-06T18:53:39.191Z,101415.98
2022-10-06T18:56:11.218Z,101414.39
2022-10-06T18:58:44.488Z,101416.75
2022-10-06T19:01:16.951Z,101422.51
2022-10-06T19:03:50.690Z,101419.92
2022-10-06T19:06:22.991Z,101422.98
2022-10-06T19:09:00.940Z,101429.66
2022-10-06T19:11:46.097Z,101433.20
2022-10-06T19:14:20.159Z,101433.89
2022-10-06T19:16:59.032Z,101433.79
2022-10-06T19:19:34.296Z,101440.73
2022-10-06T19:22:07.470Z,101443.21
2022-10-06T19:24:42.217Z,101447.31
2022-10-06T19:27:15.267Z,101446.34
2022-10-06T19:29:53.164Z,101446.68
2022-10-06T19:32:27.219Z,101449.14
2022-10-06T19:34:59.500Z,101454.98
2022-10-06T19:37:33.519Z,101455.23
2022-10-06T19:40:08.327Z,101457.34
2022-10-06T19:42:51.291Z,101458.93
2022-10-06T19:45:23.566Z,101458.64
2022-10-06T19:47:57.502Z,101460.63
2022-10-06T19:50:30.375Z,101461.02
2022-10-06T19:53:04.775Z,101462.89
2022-10-06T19:55:36.906Z,101467.05
2022-10-06T19:58:09.071Z,101468.73
2022-10-06T20:00:42.305Z,101471.27
2022-10-06T20:03:14.335Z,101480.27
2022-10-06T20:05:46.481Z,101480.42
2022-10-06T20:08:18.597Z,101479.58
2022-10-06T20:10:50.760Z,101480.33
2022-10-06T20:13:22.911Z,101480.48
2022-10-06T20:15:55.013Z,101482.48
2022-10-06T20:18:27.208Z,101486.69
2022-10-06T20:21:02.421Z,101489.19
2022-10-06T20:23:34.468Z,101488.31
2022-10-06T20:26:14.968Z,101487.62
2022-10-06T20:28:47.568Z,101496.14
2022-10-06T20:31:22.665Z,101492.29
2022-10-06T20:33:58.146Z,101490.88
2022-10-06T20:36:32.121Z,101490.82
2022-10-06T20:39:31.135Z,101493.05
2022-10-06T20:42:03.618Z,101497.54
2022-10-06T20:44:36.054Z,101496.23
2022-10-06T20:47:08.969Z,101499.90
2022-10-06T20:49:42.618Z,101499.66
2022-10-06T20:52:15.234Z,101504.17
2022-10-06T20:54:47.280Z,101508.80
2022-10-06T20:57:19.380Z,101516.17
2022-10-06T20:59:52.649Z,101509.90
2022-10-06T21:02:24.798Z,101509.52
2022-10-06T21:04:57.590Z,101514.00
2022-10-06T21:07:30.215Z,101515.09
2022-10-06T21:10:02.390Z,101518.70
2022-10-06T21:12:34.642Z,101517.95
2022-10-06T21:15:07.648Z,101519.16
2022-10-06T21:17:42.508Z,101520.00
2022-10-06T21:20:15.053Z,101520.30
2022-10-06T21:22:47.343Z,101517.14
2022-10-06T21:25:19.719Z,101515.41
2022-10-06T21:27:51.908Z,101511.95
2022-10-06T21:30:24.543Z,101512.11
2022-10-06T21:32:57.797Z,101515.44
2022-10-06T21:35:30.067Z,101520.70
2022-10-06T21:38:02.217Z,101521.09
2022-10-06T21:40:38.532Z,101524.28
2022-10-06T21:43:10.912Z,101523.25
2022-10-06T21:45:47.434Z,101520.94
2022-10-06T21:48:20.056Z,101521.55
2022-10-06T21:50:58.509Z,101520.85
2022-10-06T21:53:32.967Z,101520.95
2022-10-06T21:56:05.330Z,101523.23
2022-10-06T21:58:37.635Z,101524.67
2022-10-06T22:01:14.032Z,101527.13
2022-10-06T22:03:46.535Z,101524.65
2022-10-06T22:06:20.111Z,101525.05
2022-10-06T22:08:52.835Z,101523.60
2022-10-06T22:11:27.373Z,101519.64
2022-10-06T22:14:01.524Z,101524.26
2022-10-06T22:16:35.579Z,101523.17
2022-10-06T22:19:09.816Z,101524.32
2022-10-06T22:21:43.844Z,101525.05
2022-10-06T22:24:17.968Z,101519.92
2022-10-06T22:26:50.888Z,101518.84
2022-10-06T22:29:23.713Z,101517.76
2022-10-06T22:31:56.181Z,101517.48
2022-10-06T22:34:29.849Z,101524.73
2022-10-06T22:37:01.999Z,101527.92
2022-10-06T22:39:34.560Z,101524.91
2022-10-06T22:42:06.992Z,101525.84
2022-10-06T22:44:39.074Z,101521.93
2022-10-06T22:47:11.188Z,101514.20
2022-10-06T22:49:43.325Z,101517.45
2022-10-06T22:52:15.421Z,101513.75
2022-10-06T22:54:47.586Z,101509.95
2022-10-06T22:57:19.748Z,101510.93
2022-10-06T22:59:51.957Z,101509.40
2022-10-06T23:02:24.091Z,101511.34
2022-10-06T23:04:56.276Z,101509.95
2022-10-06T23:07:28.433Z,101509.84
2022-10-06T23:10:00.568Z,101509.88
2022-10-06T23:12:32.663Z,101509.32
2022-10-06T23:15:05.363Z,101508.30
2022-10-06T23:17:38.025Z,101510.95
2022-10-06T23:20:13.073Z,101510.09
2022-10-06T23:22:45.228Z,101513.16
2022-10-06T23:25:17.523Z,101518.54
2022-10-06T23:27:49.670Z,101522.20
2022-10-06T23:30:21.860Z,101517.38
2022-10-06T23:32:53.937Z,101521.34
2022-10-06T23:35:26.131Z,101520.92
2022-10-06T23:37:58.243Z,101518.63
2022-10-06T23:40:30.539Z,101522.69
2022-10-06T23:43:02.794Z,101525.66
2022-10-06T23:45:35.030Z,101525.58
2022-10-06T23:48:07.147Z,101523.39
2022-10-06T23:50:39.291Z,101523.77
2022-10-06T23:53:11.841Z,101524.29
2022-10-06T23:55:44.001Z,101522.52
2022-10-06T23:58:16.623Z,101520.42
